Ana Sayfa
METAR-TAF:

METAR-TAF

Havaalanları :

Mitiga International Airport

Trablus, Libya

Enlem: 32-54N, Boylam: 13-17E, yükseklik: 11 m

METAR: eksik

Saat: 14:29 (12:29 UTC)

Tahmin

Rapor saat 05:00 UTC de 7 saat ve 29 dakika önce yapıldı.
Ayın 22'si saat 06 UTC'den ayın 23'si saat 06 UTC'ye kadar geçerli Tahmin
Rüzgar güneybatıdan 10 kt
Görüş mesafesi: 8000 m
2500 ft yükseklikte parçalı bulutlu
Dönüşüyor
ayın 22'si saat 14 UTC'den ayın 22'si saat 16 UTC'ye kadar
Rüzgar kuzeydan 14 kt
Dönüşüyor
ayın 22'si saat 21 UTC'den ayın 22'si saat 23 UTC'ye kadar
Rüzgar kuzey/kuzeybatıdan 12 kt
Görüş mesafesi: 8000 m
2500 ft yükseklikte parçalı bulutlu
8000 ft yükseklikte parçalı bulutlu

TAF: HLLM 220500Z 2206/2306 23010KT 8000 SCT025 BECMG 2214/2216 35014KT BECMG 2221/2223 VRB02KT HLMS 220500Z 2206/2306 34012KT 8000 SCT025 SCT080

4.000'den fazla havaalanı için hava durumu gözlemleri ve tahminleri (METAR ve TAF raporları).

Kullanılabilir istasyonlar harita üzerinde sarı ve kırmızı noktalarla gösterilir.

İstasyonun adını görmek için fareyi noktanın üzerinde gezdirin.

Sonrasında hava gözlem ve tahminlerini görmek için tıklayın.

Haritayı değiştirmek için: yaklaştırmak için siyah artı işaretli yeşil düğmeye ve uzaklaştırmak için de eksi işaretli düğmeye hızla tıklayın; bitişik haritalar için yeşil okları kullanın.


METAR-TAF: